Time;durP1;ratioP1;P1;durP2;ratioP2;P2;SDS_P1;SDS_P2;PMS_P1;PMS_P2;Temp;Humidity;BMP_temperature;BMP_pressure;BME280_temperature;BME280_humidity;BME280_pressure;Samples;Min_cycle;Max_cycle;Signal;HPM_P1;HPM_P2
2022/04/14 00:01:02;;;;;;;;;;;;;;;4.28;56.63;101165.02;84619;1331;22572;-78
2022/04/14 00:03:06;;;;;;;;;;;;;;;4.24;56.45;101161.91;84620;1333;24038;-78
2022/04/14 00:05:11;;;;;;;;;;;;;;;4.22;56.44;101162.60;84573;1334;23007;-75
2022/04/14 00:07:19;;;;;;;;;;;;;;;4.21;56.44;101165.02;84547;1334;22796;-75
2022/04/14 00:09:24;;;;;;;;;;;;;;;4.20;56.65;101163.81;84521;1336;22582;-78
2022/04/14 00:11:29;;;;;;;;;;;;;;;4.18;56.53;101165.01;84648;1333;25527;-78
2022/04/14 00:13:33;;;;;;;;;;;;;;;4.17;56.46;101160.87;84573;1330;23030;-78
2022/04/14 00:15:38;;;;;;;;;;;;;;;4.16;56.56;101162.08;84525;1335;24249;-78
2022/04/14 00:17:42;;;;;;;;;;;;;;;4.16;56.33;101163.98;84577;1334;24034;-78
2022/04/14 00:19:50;;;;;;;;;;;;;;;4.12;56.62;101162.23;84580;1334;24400;-74
2022/04/14 00:21:57;;;;;;;;;;;;;;;4.07;56.91;101155.33;84553;1335;25919;-74
2022/04/14 00:24:05;;;;;;;;;;;;;;;4.03;56.87;101154.80;84642;1330;22577;-75
2022/04/14 00:26:09;;;;;;;;;;;;;;;3.99;56.95;101158.96;84643;1331;24253;-74
2022/04/14 00:28:17;;;;;;;;;;;;;;;3.98;57.15;101157.90;84625;1333;22589;-75
2022/04/14 00:30:25;;;;;;;;;;;;;;;3.95;56.95;101158.26;84650;1330;25468;-75
2022/04/14 00:32:31;;;;;;;;;;;;;;;3.92;57.53;101152.55;84573;1331;25333;-75
2022/04/14 00:34:38;;;;;;;;;;;;;;;3.87;57.61;101153.05;84618;1330;22627;-78
2022/04/14 00:36:45;;;;;;;;;;;;;;;3.83;57.74;101149.42;84556;1335;22594;-78
2022/04/14 00:38:50;;;;;;;;;;;;;;;3.80;57.48;101143.73;84568;1331;25429;-75
2022/04/14 00:40:58;;;;;;;;;;;;;;;3.79;57.31;101140.61;84539;1334;22584;-75
2022/04/14 00:43:07;;;;;;;;;;;;;;;3.83;56.77;101139.77;84495;1334;25444;-75
2022/04/14 00:45:12;;;;;;;;;;;;;;;3.90;56.49;101141.16;84633;1333;23974;-78
2022/04/14 00:47:20;;;;;;;;;;;;;;;3.95;56.10;101140.64;84655;1333;22840;-78
2022/04/14 00:49:28;;;;;;;;;;;;;;;3.97;56.37;101141.33;84675;1330;22638;-78
2022/04/14 00:51:35;;;;;;;;;;;;;;;3.98;56.38;101138.73;84622;1330;22714;-78
2022/04/14 00:53:43;;;;;;;;;;;;;;;4.00;56.33;101139.45;84640;1329;22570;-76
2022/04/14 00:55:48;;;;;;;;;;;;;;;4.05;55.88;101134.61;84570;1335;22628;-75
2022/04/14 00:57:53;;;;;;;;;;;;;;;4.05;56.11;101133.76;84589;1327;22900;-75
2022/04/14 01:00:00;;;;;;;;;;;;;;;4.04;56.15;101134.79;84656;1330;22723;-73
2022/04/14 01:02:06;;;;;;;;;;;;;;;4.03;56.24;101134.25;84635;1329;22638;-74
2022/04/14 01:04:13;;;;;;;;;;;;;;;4.01;56.48;101136.17;84652;1330;24236;-77
2022/04/14 01:06:22;;;;;;;;;;;;;;;4.00;56.40;101133.23;84594;1334;22650;-78
2022/04/14 01:08:27;;;;;;;;;;;;;;;3.95;56.73;101136.67;84533;1334;22602;-78
2022/04/14 01:10:34;;;;;;;;;;;;;;;3.92;56.72;101132.86;84609;1332;24399;-74
2022/04/14 01:12:39;;;;;;;;;;;;;;;3.90;56.65;101134.25;84591;1335;22591;-75
2022/04/14 01:14:44;;;;;;;;;;;;;;;3.87;56.76;101132.00;84591;1332;24248;-75
2022/04/14 01:16:48;;;;;;;;;;;;;;;3.89;56.66;101135.27;84525;1333;25364;-75
2022/04/14 01:18:53;;;;;;;;;;;;;;;3.89;56.86;101138.04;84568;1331;24109;-77
2022/04/14 01:20:57;;;;;;;;;;;;;;;3.87;56.91;101139.42;84650;1333;22566;-78
2022/04/14 01:23:03;;;;;;;;;;;;;;;3.84;57.03;101139.95;83909;1330;1003557;-78
2022/04/14 01:25:11;;;;;;;;;;;;;;;3.80;57.08;101139.93;84585;1334;24224;-78
2022/04/14 01:27:19;;;;;;;;;;;;;;;3.76;57.31;101139.92;84593;1334;25369;-79
2022/04/14 01:29:24;;;;;;;;;;;;;;;3.73;57.44;101140.77;84601;1332;25434;-74
2022/04/14 01:31:28;;;;;;;;;;;;;;;3.71;57.57;101138.18;84596;1334;24248;-74
2022/04/14 01:33:36;;;;;;;;;;;;;;;3.68;57.83;101138.52;84559;1331;22596;-76
2022/04/14 01:35:43;;;;;;;;;;;;;;;3.62;58.05;101139.54;84586;1334;22601;-78
2022/04/14 01:37:48;;;;;;;;;;;;;;;3.57;58.31;101134.00;84592;1332;24948;-79
2022/04/14 01:39:52;;;;;;;;;;;;;;;3.53;58.58;101134.85;84574;1334;22587;-74
2022/04/14 01:41:57;;;;;;;;;;;;;;;3.48;58.88;101141.05;84517;1332;23844;-75
2022/04/14 01:44:02;;;;;;;;;;;;;;;3.46;58.27;101139.84;84643;1333;25274;-79
2022/04/14 01:46:08;;;;;;;;;;;;;;;3.44;58.35;101140.52;84623;1333;22645;-79
2022/04/14 01:48:15;;;;;;;;;;;;;;;3.43;58.40;101144.99;84658;1330;22593;-77
2022/04/14 01:50:21;;;;;;;;;;;;;;;3.48;57.85;101144.84;84627;1330;22600;-75
2022/04/14 01:52:25;;;;;;;;;;;;;;;3.57;57.43;101141.59;84650;1333;22586;-74
2022/04/14 01:54:30;;;;;;;;;;;;;;;3.68;57.13;101142.31;84564;1335;24463;-78
2022/04/14 01:56:38;;;;;;;;;;;;;;;3.71;57.07;101143.02;83868;1331;1003236;-77
2022/04/14 01:58:42;;;;;;;;;;;;;;;3.72;57.13;101145.09;84684;1333;22735;-77
2022/04/14 02:00:47;;;;;;;;;;;;;;;3.74;56.80;101138.36;84578;1333;22578;-76
2022/04/14 02:02:52;;;;;;;;;;;;;;;3.80;56.65;101134.41;84577;1330;22832;-75
2022/04/14 02:04:57;;;;;;;;;;;;;;;3.87;56.59;101136.83;84531;1333;23101;-78
2022/04/14 02:07:05;;;;;;;;;;;;;;;3.90;56.31;101135.30;84579;1330;22598;-79
2022/04/14 02:09:09;;;;;;;;;;;;;;;3.91;56.54;101131.84;84574;1333;24306;-74
2022/04/14 02:11:14;;;;;;;;;;;;;;;3.93;56.21;101135.11;84572;1334;25635;-75
2022/04/14 02:13:21;;;;;;;;;;;;;;;3.94;56.31;101132.86;84227;1332;387256;-75
2022/04/14 02:15:29;;;;;;;;;;;;;;;3.97;56.33;101137.19;84576;1332;22593;-78
2022/04/14 02:17:37;;;;;;;;;;;;;;;3.99;56.30;101138.23;84551;1332;22634;-78
2022/04/14 02:19:44;;;;;;;;;;;;;;;3.98;56.32;101141.50;84565;1334;22602;-75
2022/04/14 02:21:49;;;;;;;;;;;;;;;3.98;56.64;101142.70;84553;1333;22633;-74
2022/04/14 02:23:53;;;;;;;;;;;;;;;3.98;56.77;101139.95;84549;1332;22586;-78
2022/04/14 02:25:58;;;;;;;;;;;;;;;4.01;56.57;101136.86;84570;1334;22571;-78
2022/04/14 02:28:02;;;;;;;;;;;;;;;4.01;56.54;101129.77;84520;1332;22604;-78
2022/04/14 02:30:09;;;;;;;;;;;;;;;4.01;56.72;101132.88;84571;1333;22581;-74
2022/04/14 02:32:16;;;;;;;;;;;;;;;4.05;56.65;101128.74;84631;1333;22602;-74
2022/04/14 02:34:25;;;;;;;;;;;;;;;4.08;56.63;101127.35;84649;1331;22643;-74
2022/04/14 02:36:29;;;;;;;;;;;;;;;4.12;56.42;101123.73;84627;1333;22660;-74
2022/04/14 02:38:36;;;;;;;;;;;;;;;4.13;56.94;101122.87;84660;1333;22793;-75
2022/04/14 02:40:44;;;;;;;;;;;;;;;4.18;56.36;101121.31;84650;1330;22578;-74
2022/04/14 02:42:48;;;;;;;;;;;;;;;4.18;56.42;101122.00;84658;1330;22603;-76
2022/04/14 02:44:56;;;;;;;;;;;;;;;4.17;56.67;101119.59;84665;1331;22654;-74
2022/04/14 02:47:01;;;;;;;;;;;;;;;4.17;56.38;101117.17;84550;1328;24242;-75
2022/04/14 02:49:09;;;;;;;;;;;;;;;4.17;56.48;101113.55;84688;1332;22639;-78
2022/04/14 02:51:13;;;;;;;;;;;;;;;4.15;56.39;101113.38;84660;1327;22662;-78
2022/04/14 02:53:18;;;;;;;;;;;;;;;4.11;56.55;101118.56;84641;1332;24363;-77
2022/04/14 02:55:23;;;;;;;;;;;;;;;4.07;56.89;101118.91;84617;1330;22640;-78
2022/04/14 02:57:27;;;;;;;;;;;;;;;4.01;56.92;101117.35;84639;1332;22598;-78
2022/04/14 02:59:32;;;;;;;;;;;;;;;3.95;57.14;101120.27;84657;1333;22686;-74
2022/04/14 03:01:36;;;;;;;;;;;;;;;3.89;57.33;101121.30;84629;1327;22616;-74
2022/04/14 03:03:44;;;;;;;;;;;;;;;3.86;57.54;101120.27;84585;1334;25300;-76
2022/04/14 03:05:51;;;;;;;;;;;;;;;3.86;57.66;101117.15;84556;1333;22590;-74
2022/04/14 03:07:59;;;;;;;;;;;;;;;3.92;57.75;101114.23;84510;1332;22814;-75
2022/04/14 03:10:07;;;;;;;;;;;;;;;3.96;57.70;101113.54;84572;1332;22758;-78
2022/04/14 03:12:12;;;;;;;;;;;;;;;4.00;57.49;101114.59;84638;1331;22854;-79
2022/04/14 03:14:17;;;;;;;;;;;;;;;4.02;57.31;101114.06;84617;1330;25434;-74
2022/04/14 03:16:22;;;;;;;;;;;;;;;4.00;57.40;101116.15;84617;1333;25969;-75
2022/04/14 03:18:26;;;;;;;;;;;;;;;3.98;57.44;101114.23;84600;1333;22569;-73
2022/04/14 03:20:31;;;;;;;;;;;;;;;3.97;57.77;101115.61;84631;1325;22593;-74
2022/04/14 03:22:39;;;;;;;;;;;;;;;3.93;57.79;101111.81;84599;1330;22669;-75
2022/04/14 03:24:44;;;;;;;;;;;;;;;3.87;57.95;101110.76;84667;1330;22652;-77
2022/04/14 03:26:49;;;;;;;;;;;;;;;3.82;58.13;101116.12;84621;1333;26695;-79
2022/04/14 03:28:54;;;;;;;;;;;;;;;3.77;57.98;101113.69;84694;1333;22576;-75
2022/04/14 03:30:58;;;;;;;;;;;;;;;3.74;58.13;101109.02;84649;1330;23179;-74
2022/04/14 03:33:03;;;;;;;;;;;;;;;3.73;57.99;101106.43;84620;1330;22576;-75
2022/04/14 03:35:10;;;;;;;;;;;;;;;3.71;58.21;101102.30;84643;1330;22595;-75
2022/04/14 03:37:14;;;;;;;;;;;;;;;3.70;58.27;101097.98;84658;1330;22725;-75
2022/04/14 03:39:19;;;;;;;;;;;;;;;3.70;58.47;101096.77;84636;1330;22581;-75
2022/04/14 03:41:24;;;;;;;;;;;;;;;3.70;58.44;101092.29;84622;1333;26493;-75
2022/04/14 03:43:28;;;;;;;;;;;;;;;3.71;58.56;101093.33;84627;1330;24245;-75
2022/04/14 03:45:33;;;;;;;;;;;;;;;3.76;58.63;101091.94;84586;1330;22594;-78
2022/04/14 03:47:38;;;;;;;;;;;;;;;3.80;58.37;101085.40;84633;1329;22609;-79
2022/04/14 03:49:42;;;;;;;;;;;;;;;3.82;58.35;101082.45;84686;1330;22601;-74
2022/04/14 03:51:47;;;;;;;;;;;;;;;3.85;58.52;101083.34;84640;1325;23020;-75
2022/04/14 03:53:54;;;;;;;;;;;;;;;3.89;58.45;101084.70;84555;1332;22710;-78
2022/04/14 03:55:59;;;;;;;;;;;;;;;3.92;58.33;101084.20;84652;1329;22588;-78
2022/04/14 03:58:03;;;;;;;;;;;;;;;3.97;58.25;101082.64;84641;1330;22592;-78
2022/04/14 04:00:10;;;;;;;;;;;;;;;4.02;58.14;101084.71;84650;1333;22586;-77
2022/04/14 04:02:14;;;;;;;;;;;;;;;4.06;57.98;101082.48;84659;1331;22593;-78
2022/04/14 04:04:22;;;;;;;;;;;;;;;4.10;58.10;101084.02;84616;1330;22652;-75
2022/04/14 04:06:27;;;;;;;;;;;;;;;4.16;58.09;101085.59;84640;1330;24295;-75
2022/04/14 04:08:34;;;;;;;;;;;;;;;4.22;58.12;101084.20;84623;1329;22750;-74
2022/04/14 04:10:39;;;;;;;;;;;;;;;4.28;58.10;101081.95;84607;1330;24238;-77
2022/04/14 04:12:43;;;;;;;;;;;;;;;4.36;57.80;101079.17;84644;1330;22594;-78
2022/04/14 04:14:51;;;;;;;;;;;;;;;4.48;57.87;101078.81;84628;1330;22587;-78
2022/04/14 04:16:55;;;;;;;;;;;;;;;4.60;57.43;101074.64;84646;1330;22632;-78
2022/04/14 04:19:00;;;;;;;;;;;;;;;4.74;57.13;101073.74;84637;1330;22590;-77
2022/04/14 04:21:05;;;;;;;;;;;;;;;4.86;57.22;101070.77;84633;1333;22543;-78
2022/04/14 04:23:09;;;;;;;;;;;;;;;4.99;56.94;101072.98;84600;1330;22595;-78
2022/04/14 04:25:17;;;;;;;;;;;;;;;5.17;56.52;101072.73;84658;1329;23931;-78
2022/04/14 04:27:22;;;;;;;;;;;;;;;5.37;56.43;101072.44;84620;1330;22656;-78
2022/04/14 04:29:27;;;;;;;;;;;;;;;5.59;56.20;101069.90;84991;1331;22635;-76
2022/04/14 04:31:31;;;;;;;;;;;;;;;5.83;55.87;101063.52;84617;1329;24238;-75
2022/04/14 04:33:40;;;;;;;;;;;;;;;6.08;55.54;101061.94;84505;1335;25428;-74
2022/04/14 04:35:49;;;;;;;;;;;;;;;6.38;55.38;101059.40;84627;1330;23920;-78
2022/04/14 04:37:56;;;;;;;;;;;;;;;6.69;54.89;101058.73;84649;1332;22601;-77
2022/04/14 04:40:06;;;;;;;;;;;;;;;6.99;54.04;101054.23;83205;1331;1003891;-74
2022/04/14 04:42:13;;;;;;;;;;;;;;;7.26;53.20;101057.36;84612;1329;22570;-76
2022/04/14 04:44:18;;;;;;;;;;;;;;;7.51;52.58;101055.63;84636;1330;24323;-78
2022/04/14 04:46:23;;;;;;;;;;;;;;;7.78;52.43;101054.17;84613;1333;22658;-78
2022/04/14 04:48:28;;;;;;;;;;;;;;;8.07;51.59;101052.31;84627;1333;22577;-78
2022/04/14 04:50:33;;;;;;;;;;;;;;;8.35;50.95;101049.24;84638;1331;23137;-79
2022/04/14 04:52:40;;;;;;;;;;;;;;;8.66;50.95;101045.89;84590;1330;22575;-79
2022/04/14 04:54:48;;;;;;;;;;;;;;;9.01;49.87;101046.42;84638;1330;25785;-74
2022/04/14 04:56:56;;;;;;;;;;;;;;;9.29;49.18;101049.09;84640;1332;22573;-75
2022/04/14 04:59:03;;;;;;;;;;;;;;;9.54;48.54;101047.51;84625;1332;22583;-79
2022/04/14 05:01:12;;;;;;;;;;;;;;;9.72;48.02;101050.75;84619;1327;22675;-79
2022/04/14 05:03:21;;;;;;;;;;;;;;;9.88;47.71;101054.03;84625;1330;23917;-78
2022/04/14 05:05:28;;;;;;;;;;;;;;;10.07;47.20;101053.55;84628;1331;22569;-74
2022/04/14 05:07:36;;;;;;;;;;;;;;;10.24;46.71;101048.95;84631;1329;23031;-73
2022/04/14 05:09:41;;;;;;;;;;;;;;;10.38;46.22;101049.31;84639;1329;22562;-75
2022/04/14 05:11:48;;;;;;;;;;;;;;;10.55;45.87;101052.16;84619;1333;22615;-74
2022/04/14 05:13:53;;;;;;;;;;;;;;;10.69;45.52;101047.63;84642;1330;24346;-75
2022/04/14 05:15:58;;;;;;;;;;;;;;;10.83;44.90;101047.22;84632;1329;22760;-75
2022/04/14 05:18:06;;;;;;;;;;;;;;;10.96;44.34;101041.78;84626;1330;22603;-76
2022/04/14 05:20:14;;;;;;;;;;;;;;;11.16;44.52;101042.42;84609;1330;22727;-75
2022/04/14 05:22:19;;;;;;;;;;;;;;;11.38;44.36;101040.20;84618;1330;25509;-74
2022/04/14 05:24:26;;;;;;;;;;;;;;;11.63;43.36;101036.27;84627;1331;22574;-75
2022/04/14 05:26:31;;;;;;;;;;;;;;;11.85;42.59;101035.21;84615;1327;22634;-75
2022/04/14 05:28:36;;;;;;;;;;;;;;;12.16;43.06;101037.51;84518;1330;22607;-74
2022/04/14 05:30:40;;;;;;;;;;;;;;;12.57;42.53;101035.04;84573;1330;22607;-78
2022/04/14 05:32:44;;;;;;;;;;;;;;;13.02;41.74;101033.91;84635;1332;24302;-79
2022/04/14 05:34:52;;;;;;;;;;;;;;;13.48;41.23;101034.11;84627;1327;22583;-79
2022/04/14 05:36:56;;;;;;;;;;;;;;;13.87;39.78;101030.98;84642;1329;22588;-79
2022/04/14 05:39:04;;;;;;;;;;;;;;;14.14;38.76;101033.35;84553;1328;24239;-75
2022/04/14 05:41:09;;;;;;;;;;;;;;;14.40;38.57;101036.11;84636;1330;22577;-75
2022/04/14 05:43:18;;;;;;;;;;;;;;;14.74;37.97;101034.10;84635;1327;22588;-75
2022/04/14 05:45:23;;;;;;;;;;;;;;;15.20;37.05;101030.27;84644;1330;22603;-76
2022/04/14 05:47:28;;;;;;;;;;;;;;;15.50;36.26;101030.60;84600;1333;22612;-75
2022/04/14 05:49:32;;;;;;;;;;;;;;;15.90;36.34;101026.70;84648;1329;22581;-79
2022/04/14 05:51:37;;;;;;;;;;;;;;;16.42;35.72;101030.79;84611;1330;23912;-78
2022/04/14 05:53:41;;;;;;;;;;;;;;;16.90;34.55;101027.58;84624;1330;24247;-80
2022/04/14 05:55:47;;;;;;;;;;;;;;;17.18;34.29;101029.77;84633;1328;22910;-77
2022/04/14 05:57:55;;;;;;;;;;;;;;;17.50;32.69;101030.27;84640;1331;22570;-79
2022/04/14 06:00:00;;;;;;;;;;;;;;;17.65;32.22;101025.17;84669;1330;25691;-78
2022/04/14 06:02:05;;;;;;;;;;;;;;;17.92;32.23;101024.00;84623;1329;23902;-79
2022/04/14 06:04:10;;;;;;;;;;;;;;;18.31;31.67;101018.50;84635;1330;22950;-78
2022/04/14 06:06:18;;;;;;;;;;;;;;;18.68;31.10;101021.20;84615;1329;22633;-79
2022/04/14 06:08:22;;;;;;;;;;;;;;;19.00;30.04;101019.97;84625;1329;23964;-79
2022/04/14 06:10:27;;;;;;;;;;;;;;;19.25;29.40;101019.04;84604;1333;22687;-76
2022/04/14 06:12:32;;;;;;;;;;;;;;;19.63;29.50;101016.82;84598;1328;22645;-75
2022/04/14 06:14:39;;;;;;;;;;;;;;;20.09;28.86;101014.09;84577;1331;22594;-79
2022/04/14 06:16:44;;;;;;;;;;;;;;;20.42;27.39;101014.14;84569;1332;26557;-78
2022/04/14 06:18:48;;;;;;;;;;;;;;;20.64;26.89;101016.06;84640;1331;24038;-76
2022/04/14 06:20:54;;;;;;;;;;;;;;;21.02;26.88;101011.92;84623;1329;22567;-77
2022/04/14 06:22:59;;;;;;;;;;;;;;;21.21;26.23;101009.64;84573;1333;22667;-78
2022/04/14 06:25:05;;;;;;;;;;;;;;;21.55;26.37;101006.50;84629;1330;22579;-75
2022/04/14 06:27:13;;;;;;;;;;;;;;;22.07;25.81;101005.05;84619;1328;22602;-76
2022/04/14 06:29:18;;;;;;;;;;;;;;;22.37;25.18;101008.13;84635;1330;22879;-77
2022/04/14 06:31:22;;;;;;;;;;;;;;;22.60;24.44;101008.42;84636;1329;25933;-75
2022/04/14 06:33:30;;;;;;;;;;;;;;;22.70;24.53;101011.04;84635;1331;22673;-76
2022/04/14 06:35:34;;;;;;;;;;;;;;;22.90;24.44;101001.48;84635;1332;22584;-76
2022/04/14 06:37:39;;;;;;;;;;;;;;;23.16;23.61;100999.56;84597;1330;26494;-76
2022/04/14 06:39:44;;;;;;;;;;;;;;;23.16;23.37;100994.08;84619;1330;22574;-76
2022/04/14 06:41:48;;;;;;;;;;;;;;;23.05;23.14;100993.90;84531;1333;25286;-74
2022/04/14 06:43:54;;;;;;;;;;;;;;;23.03;23.46;100987.96;84622;1330;22683;-74
2022/04/14 06:46:03;;;;;;;;;;;;;;;23.35;23.72;100984.31;84628;1330;22843;-77
2022/04/14 06:48:13;;;;;;;;;;;;;;;23.77;23.22;100981.57;84649;1328;22642;-76
2022/04/14 06:50:19;;;;;;;;;;;;;;;24.04;22.37;100980.55;84523;1333;24079;-83
2022/04/14 06:52:23;;;;;;;;;;;;;;;24.18;21.95;100979.00;84630;1327;22685;-76
2022/04/14 06:54:28;;;;;;;;;;;;;;;24.15;22.19;100979.44;84633;1331;22983;-82
2022/04/14 06:56:32;;;;;;;;;;;;;;;24.34;21.82;100976.41;84611;1329;24116;-79
2022/04/14 06:58:42;;;;;;;;;;;;;;;24.52;21.43;100971.96;84614;1330;25309;-81
2022/04/14 07:00:46;;;;;;;;;;;;;;;24.75;21.51;100967.66;84636;1329;23966;-81
2022/04/14 07:02:55;;;;;;;;;;;;;;;24.88;21.32;100970.24;84629;1333;22602;-81
2022/04/14 07:05:00;;;;;;;;;;;;;;;24.96;21.35;100970.77;84616;1328;22572;-76
2022/04/14 07:07:05;;;;;;;;;;;;;;;25.13;21.12;100970.00;84527;1333;23034;-80
2022/04/14 07:09:13;;;;;;;;;;;;;;;25.37;21.08;100966.79;84598;1329;22600;-80
2022/04/14 07:11:18;;;;;;;;;;;;;;;25.54;20.13;100967.02;84635;1331;22576;-81
2022/04/14 07:13:23;;;;;;;;;;;;;;;25.65;20.29;100963.09;84616;1329;22581;-81
2022/04/14 07:15:31;;;;;;;;;;;;;;;25.85;19.70;100960.92;84659;1330;22653;-87
2022/04/14 07:17:42;;;;;;;;;;;;;;;26.07;19.95;100961.02;84520;1332;22722;-86
2022/04/14 07:19:50;;;;;;;;;;;;;;;26.35;19.63;100954.98;84632;1327;22587;-77
2022/04/14 07:21:55;;;;;;;;;;;;;;;26.60;19.60;100952.38;84595;1330;22721;-77
2022/04/14 07:24:03;;;;;;;;;;;;;;;26.92;19.43;100953.43;84642;1330;23843;-89
2022/04/14 07:26:10;;;;;;;;;;;;;;;27.24;19.20;100953.09;84583;1332;25473;-78
2022/04/14 07:28:15;;;;;;;;;;;;;;;27.54;18.64;100954.39;84497;1333;22638;-79
2022/04/14 07:30:23;;;;;;;;;;;;;;;27.68;18.54;100953.20;84651;1333;22610;-78
2022/04/14 07:32:35;;;;;;;;;;;;;;;27.80;18.11;100952.23;84625;1330;23133;-81
2022/04/14 07:34:40;;;;;;;;;;;;;;;27.72;18.07;100951.56;84646;1330;22576;-80
2022/04/14 07:36:45;;;;;;;;;;;;;;;27.86;17.88;100952.34;84597;1330;22603;-79
2022/04/14 07:38:49;;;;;;;;;;;;;;;28.02;17.79;100948.45;84609;1329;22840;-79
2022/04/14 07:40:56;;;;;;;;;;;;;;;28.23;17.52;100949.54;84610;1333;22694;-79
2022/04/14 07:43:01;;;;;;;;;;;;;;;28.37;17.19;100947.79;84644;1332;24282;-80
2022/04/14 07:45:11;;;;;;;;;;;;;;;28.33;17.35;100942.63;84513;1333;22577;-78
2022/04/14 07:47:15;;;;;;;;;;;;;;;28.35;16.68;100947.63;84604;1330;24420;-80
2022/04/14 07:49:20;;;;;;;;;;;;;;;28.31;17.17;100947.64;84610;1330;22560;-81
2022/04/14 07:51:25;;;;;;;;;;;;;;;28.68;17.48;100949.39;84630;1330;23963;-79
2022/04/14 07:53:30;;;;;;;;;;;;;;;29.12;17.23;100944.71;84580;1331;24372;-76
2022/04/14 07:55:35;;;;;;;;;;;;;;;29.31;16.01;100942.33;84643;1330;23966;-76
2022/04/14 07:57:43;;;;;;;;;;;;;;;29.14;16.41;100948.64;84602;1333;25302;-74
2022/04/14 08:00:03;;;;;;;;;;;;;;;29.46;16.66;100943.66;84618;1330;22590;-76
2022/04/14 08:02:10;;;;;;;;;;;;;;;29.82;16.33;100944.27;84485;1332;22587;-78
2022/04/14 08:04:19;;;;;;;;;;;;;;;30.00;15.81;100943.41;84606;1330;22611;-76
2022/04/14 08:06:32;;;;;;;;;;;;;;;29.82;15.20;100932.61;84609;1328;23028;-81
2022/04/14 08:08:42;;;;;;;;;;;;;;;29.59;15.92;100937.84;84622;1330;22594;-78
2022/04/14 08:10:50;;;;;;;;;;;;;;;29.91;16.01;100937.02;84583;1332;22574;-80
2022/04/14 08:12:55;;;;;;;;;;;;;;;30.17;15.93;100938.76;84618;1330;22566;-75
2022/04/14 08:15:00;;;;;;;;;;;;;;;30.48;15.51;100942.64;84634;1332;24257;-77
2022/04/14 08:17:10;;;;;;;;;;;;;;;30.69;15.26;100943.63;84602;1330;22676;-79
2022/04/14 08:19:19;;;;;;;;;;;;;;;30.80;15.51;100939.34;84609;1330;22575;-80
2022/04/14 08:21:26;;;;;;;;;;;;;;;31.03;14.97;100936.79;84660;1329;22589;-80
2022/04/14 08:23:30;;;;;;;;;;;;;;;31.13;15.35;100932.42;84612;1330;22673;-83
2022/04/14 08:25:35;;;;;;;;;;;;;;;31.44;14.76;100934.08;84631;1331;23981;-75
2022/04/14 08:27:40;;;;;;;;;;;;;;;31.40;14.19;100928.46;84605;1330;26472;-77
2022/04/14 08:29:45;;;;;;;;;;;;;;;31.44;14.56;100928.83;84603;1330;24098;-76
2022/04/14 08:31:51;;;;;;;;;;;;;;;31.67;14.29;100926.10;84574;1332;22664;-76
2022/04/14 08:33:56;;;;;;;;;;;;;;;31.88;13.72;100927.14;84612;1333;22595;-75
2022/04/14 08:36:12;;;;;;;;;;;;;;;31.76;13.52;100926.04;84618;1327;22607;-75
2022/04/14 08:38:22;;;;;;;;;;;;;;;31.52;14.04;100924.64;84617;1330;22574;-75
2022/04/14 08:40:28;;;;;;;;;;;;;;;31.50;14.60;100926.36;84626;1329;22586;-79
2022/04/14 08:42:38;;;;;;;;;;;;;;;31.72;13.77;100929.52;84623;1330;22689;-80
2022/04/14 08:44:45;;;;;;;;;;;;;;;31.88;14.11;100924.39;84618;1330;22612;-77
2022/04/14 08:46:53;;;;;;;;;;;;;;;32.11;14.06;100924.16;84593;1330;22934;-76
2022/04/14 08:48:58;;;;;;;;;;;;;;;32.33;13.23;100930.69;84641;1333;22585;-80
2022/04/14 08:51:04;;;;;;;;;;;;;;;32.13;12.91;100930.19;84592;1328;22583;-79
2022/04/14 08:53:09;;;;;;;;;;;;;;;31.75;12.93;100930.02;84601;1332;22589;-76
2022/04/14 08:55:17;;;;;;;;;;;;;;;31.64;13.66;100924.89;84661;1330;25505;-79
2022/04/14 08:57:28;;;;;;;;;;;;;;;31.79;14.04;100927.44;84599;1327;22700;-81
2022/04/14 08:59:33;;;;;;;;;;;;;;;31.93;13.30;100924.30;84624;1331;22587;-75
2022/04/14 09:01:41;;;;;;;;;;;;;;;31.85;13.29;100918.84;84524;1333;22577;-77
2022/04/14 09:03:45;;;;;;;;;;;;;;;31.64;13.95;100916.27;84581;1327;22732;-79
2022/04/14 09:05:55;;;;;;;;;;;;;;;31.77;13.71;100916.28;84610;1329;22644;-80
2022/04/14 09:08:02;;;;;;;;;;;;;;;31.79;14.14;100913.52;84601;1330;25439;-80
2022/04/14 09:10:10;;;;;;;;;;;;;;;31.93;13.56;100909.73;84617;1332;23957;-79
2022/04/14 09:12:15;;;;;;;;;;;;;;;32.14;13.67;100908.59;84611;1332;22588;-79
2022/04/14 09:14:21;;;;;;;;;;;;;;;32.21;12.99;100910.64;84618;1329;25506;-80
2022/04/14 09:16:26;;;;;;;;;;;;;;;32.07;12.92;100904.44;84581;1330;22652;-80
2022/04/14 09:18:35;;;;;;;;;;;;;;;32.02;13.39;100900.15;84604;1330;22692;-82
2022/04/14 09:20:42;;;;;;;;;;;;;;;32.17;12.91;100902.84;84623;1330;25726;-81
2022/04/14 09:22:47;;;;;;;;;;;;;;;32.26;13.42;100897.96;84615;1331;22626;-79
2022/04/14 09:24:52;;;;;;;;;;;;;;;32.40;13.42;100899.35;84609;1329;22605;-81
2022/04/14 09:26:57;;;;;;;;;;;;;;;32.33;12.63;100899.63;84607;1329;22583;-80
2022/04/14 09:29:03;;;;;;;;;;;;;;;31.99;12.90;100897.92;84597;1331;24247;-79
2022/04/14 09:31:09;;;;;;;;;;;;;;;31.90;13.43;100893.65;84611;1330;22577;-88
2022/04/14 09:33:18;;;;;;;;;;;;;;;31.89;13.56;100887.84;84628;1333;25432;-89
2022/04/14 09:35:26;;;;;;;;;;;;;;;31.54;13.16;100884.42;84600;1328;22580;-87
2022/04/14 09:37:36;;;;;;;;;;;;;;;30.79;12.95;100884.55;84646;1330;24033;-85
2022/04/14 09:39:55;;;;;;;;;;;;;;;29.94;13.27;100879.58;84544;1332;22574;-86
2022/04/14 09:41:59;;;;;;;;;;;;;;;29.38;14.18;100876.05;84564;1328;22691;-86
2022/04/14 09:44:05;;;;;;;;;;;;;;;29.10;14.22;100873.95;84588;1331;24041;-86
2022/04/14 09:46:19;;;;;;;;;;;;;;;28.66;14.22;100872.37;84586;1331;25317;-88
2022/04/14 09:48:26;;;;;;;;;;;;;;;28.17;14.99;100861.09;84574;1327;22784;-87
2022/04/14 09:50:34;;;;;;;;;;;;;;;27.84;15.28;100861.27;84583;1327;23035;-89
2022/04/14 09:53:04;;;;;;;;;;;;;;;27.53;15.39;100857.27;84578;1327;22593;-79
2022/04/14 09:55:09;;;;;;;;;;;;;;;26.98;15.00;100858.30;84553;1332;25327;-77
2022/04/14 09:57:15;;;;;;;;;;;;;;;26.50;15.20;100851.17;84544;1332;22598;-76
2022/04/14 09:59:23;;;;;;;;;;;;;;;26.06;15.23;100850.91;84552;1333;22728;-77
2022/04/14 10:01:29;;;;;;;;;;;;;;;25.72;15.35;100850.78;84559;1332;22793;-77
2022/04/14 10:03:37;;;;;;;;;;;;;;;25.52;15.93;100846.79;84429;1334;23947;-76
2022/04/14 10:05:42;;;;;;;;;;;;;;;25.35;16.10;100841.05;84564;1331;25456;-76
2022/04/14 10:07:59;;;;;;;;;;;;;;;25.09;16.78;100843.92;84534;1328;25436;-76
2022/04/14 10:10:05;;;;;;;;;;;;;;;24.84;16.15;100846.95;84494;1334;22569;-76
2022/04/14 10:12:27;;;;;;;;;;;;;;;24.45;16.77;100845.94;84528;1333;25259;-77
2022/04/14 10:14:35;;;;;;;;;;;;;;;24.34;16.92;100848.10;84116;1332;601242;-83
2022/04/14 10:16:40;;;;;;;;;;;;;;;24.38;16.93;100837.52;84536;1332;22805;-81
2022/04/14 10:18:45;;;;;;;;;;;;;;;24.35;16.33;100841.84;84563;1331;23142;-77
2022/04/14 10:20:50;;;;;;;;;;;;;;;24.31;16.95;100843.23;84550;1332;22645;-76
2022/04/14 10:22:58;;;;;;;;;;;;;;;24.37;17.05;100837.01;84536;1332;22822;-76
2022/04/14 10:25:08;;;;;;;;;;;;;;;24.42;16.96;100837.49;84560;1333;22580;-81
2022/04/14 10:27:14;;;;;;;;;;;;;;;24.41;16.83;100836.55;84566;1327;22679;-80
2022/04/14 10:29:19;;;;;;;;;;;;;;;24.34;16.13;100829.39;84517;1332;22573;-76
2022/04/14 10:31:23;;;;;;;;;;;;;;;24.25;16.66;100833.09;84502;1330;22719;-77
2022/04/14 10:33:28;;;;;;;;;;;;;;;24.11;16.38;100828.23;84539;1330;22572;-76
2022/04/14 10:35:36;;;;;;;;;;;;;;;23.93;16.38;100827.33;84584;1327;24362;-77
2022/04/14 10:37:43;;;;;;;;;;;;;;;23.74;16.65;100825.25;84539;1331;22615;-77
2022/04/14 10:39:51;;;;;;;;;;;;;;;23.69;16.63;100817.86;84541;1331;24286;-77
2022/04/14 10:41:56;;;;;;;;;;;;;;;23.70;17.31;100813.80;84569;1332;22593;-77
2022/04/14 10:44:05;;;;;;;;;;;;;;;23.75;17.09;100817.91;84580;1332;22790;-76
2022/04/14 10:46:15;;;;;;;;;;;;;;;23.62;16.49;100811.49;84578;1331;22577;-77
2022/04/14 10:48:31;;;;;;;;;;;;;;;23.49;16.36;100810.42;84563;1331;22792;-76
2022/04/14 10:50:41;;;;;;;;;;;;;;;23.39;17.28;100808.58;84592;1328;23308;-76
2022/04/14 10:53:12;;;;;;;;;;;;;;;23.45;17.06;100813.84;84522;1332;24251;-76